Terminal Aerodrome Forecast
Issued by NWS

Home | Current Version | Previous Version | Graphics & Text | Print | Product List | Glossary On
Versions: 1 2 3 4 5 6 7 8 9 10 11 12 13 14 15 16 17 18 19 20 21
610
FTUS43 KGRB 172204 AAA
TAFCWA
TAF AMD
KCWA 172204Z 1722/1818 33003KT 2SM BR OVC003
      TEMPO 1722/1801 5SM BR OVC009
     FM180100 31003KT P6SM BKN020 OVC070
     FM180700 26004KT 5SM BR SCT007 OVC015
      TEMPO 1810/1814 2SM BR BKN007
     FM181500 20008KT P6SM BKN020=

USA.gov is the U.S. government's official web portal to all federal, state and local government web resources and services.